createdAt,value
2022-08-05T00:01:35.928Z,38.80
2022-08-05T00:04:08.140Z,38.40
2022-08-05T00:06:36.263Z,40.15
2022-08-05T10:34:08.117Z,6.40
2022-08-05T10:36:40.984Z,6.80
2022-08-05T10:39:15.323Z,7.32
2022-08-05T10:42:11.329Z,7.18
2022-08-05T10:44:43.694Z,6.88
2022-08-05T10:47:26.921Z,6.28
2022-08-05T10:50:31.936Z,6.40
2022-08-05T10:53:01.030Z,6.38
2022-08-05T10:55:38.493Z,6.63
2022-08-05T10:58:17.952Z,6.65
2022-08-05T11:00:48.489Z,6.78
2022-08-05T11:03:24.291Z,6.80
2022-08-05T11:06:16.094Z,7.97
2022-08-05T11:09:16.377Z,7.85
2022-08-05T11:11:53.477Z,8.65
2022-08-05T11:14:49.428Z,7.88
2022-08-05T11:17:59.071Z,7.75
2022-08-05T11:20:45.280Z,7.00
2022-08-05T11:24:04.719Z,7.25
2022-08-05T11:26:28.311Z,7.30
2022-08-05T11:29:06.682Z,7.72
2022-08-05T11:31:57.537Z,8.75
2022-08-05T11:34:39.012Z,8.55
2022-08-05T11:38:28.525Z,7.63
2022-08-05T11:40:00.376Z,8.45
2022-08-05T11:42:38.081Z,8.68
2022-08-05T11:45:23.387Z,8.93
2022-08-05T11:47:55.257Z,8.93
2022-08-05T11:50:22.904Z,9.30
2022-08-05T11:52:52.159Z,9.32
2022-08-05T11:55:22.701Z,8.75
2022-08-05T11:58:10.088Z,8.73
2022-08-05T12:00:41.369Z,9.15
2022-08-05T12:03:29.264Z,9.45
2022-08-05T12:06:06.083Z,8.10
2022-08-05T12:08:49.787Z,8.85
2022-08-05T12:11:23.071Z,9.02
2022-08-05T12:14:06.053Z,9.18
2022-08-05T12:16:45.644Z,9.35
2022-08-05T12:20:26.548Z,9.57
2022-08-05T12:22:01.642Z,9.48
2022-08-05T12:24:30.150Z,9.95
2022-08-05T12:26:57.748Z,10.38
2022-08-05T12:29:26.081Z,10.40
2022-08-05T12:31:57.330Z,10.07
2022-08-05T12:34:37.013Z,10.13
2022-08-05T12:37:17.600Z,10.45
2022-08-05T12:39:51.607Z,9.80
2022-08-05T12:42:20.532Z,10.20
2022-08-05T12:44:47.979Z,10.00
2022-08-05T12:47:26.686Z,10.20
2022-08-05T12:50:02.392Z,10.18
2022-08-05T12:52:39.742Z,9.88
2022-08-05T12:55:26.416Z,10.70
2022-08-05T13:32:29.306Z,9.10
2022-08-05T13:35:00.957Z,9.43
2022-08-05T13:37:34.808Z,9.20
2022-08-05T13:40:16.189Z,8.98
2022-08-05T13:42:47.649Z,8.90
2022-08-05T13:45:22.521Z,9.32
2022-08-05T13:48:09.832Z,9.18
2022-08-05T13:50:44.642Z,9.40
2022-08-05T13:53:15.863Z,8.40
2022-08-05T13:55:50.081Z,9.15
2022-08-05T13:58:30.940Z,8.82
2022-08-05T14:00:58.857Z,9.27
2022-08-05T14:03:29.687Z,9.38
2022-08-05T14:06:25.350Z,8.88
2022-08-05T14:08:46.502Z,8.20
2022-08-05T14:11:20.911Z,8.32
2022-08-05T14:13:49.034Z,9.07
2022-08-05T14:16:22.125Z,8.57
2022-08-05T14:18:49.187Z,8.65
2022-08-05T14:22:07.239Z,9.57
2022-08-05T14:24:03.280Z,9.07
2022-08-05T14:26:36.741Z,9.32
2022-08-05T14:29:16.333Z,8.82
2022-08-05T14:32:02.274Z,9.13
2022-08-05T15:26:50.231Z,9.80
2022-08-05T15:29:17.272Z,10.10
2022-08-05T15:31:51.026Z,10.02
2022-08-05T15:34:33.148Z,10.85
2022-08-05T15:37:06.296Z,10.40
2022-08-05T15:40:58.245Z,10.02
2022-08-05T15:42:50.137Z,10.35
2022-08-05T15:45:15.183Z,10.20
2022-08-05T15:47:43.651Z,10.38
2022-08-05T15:50:15.875Z,10.32
2022-08-05T15:52:53.347Z,9.90
2022-08-05T15:55:25.101Z,9.90
2022-08-05T15:58:16.809Z,9.48
2022-08-05T16:00:50.538Z,9.68
2022-08-05T16:03:30.526Z,10.15
2022-08-05T16:05:59.978Z,9.93
2022-08-05T16:08:30.768Z,9.85
2022-08-05T16:10:58.800Z,9.90
2022-08-05T16:13:34.331Z,10.05
2022-08-05T16:16:04.074Z,10.45
2022-08-05T16:18:32.950Z,10.20
2022-08-05T16:21:04.211Z,10.40
2022-08-05T16:23:33.106Z,10.60
2022-08-05T16:26:26.214Z,9.95
2022-08-05T16:28:54.446Z,10.10
2022-08-05T16:31:21.736Z,10.23
2022-08-05T16:33:49.176Z,11.30
2022-08-05T16:36:20.176Z,10.73
2022-08-05T16:38:54.828Z,10.63
2022-08-05T16:42:12.143Z,11.30
2022-08-05T16:44:16.471Z,10.75
2022-08-05T16:46:56.109Z,10.63
2022-08-05T16:49:23.336Z,10.85
2022-08-05T16:51:51.145Z,11.70
2022-08-05T16:54:27.517Z,11.47
2022-08-05T16:56:59.023Z,12.20
2022-08-05T16:59:27.644Z,11.93
2022-08-05T17:01:55.949Z,11.18
2022-08-05T17:04:26.286Z,11.30
2022-08-05T17:06:55.421Z,10.50
2022-08-05T17:09:23.048Z,12.15
2022-08-05T17:11:54.664Z,12.90
2022-08-05T17:14:36.930Z,13.52
2022-08-05T17:17:05.846Z,14.32
2022-08-05T17:19:32.699Z,12.52
2022-08-05T17:22:01.375Z,14.40
2022-08-05T17:24:38.529Z,11.27
2022-08-05T17:27:09.228Z,11.85
2022-08-05T17:29:41.282Z,10.90
2022-08-05T17:32:11.427Z,10.85
2022-08-05T17:34:47.691Z,11.48
2022-08-05T17:37:40.546Z,11.15
2022-08-05T17:40:10.155Z,12.40
2022-08-05T17:42:39.914Z,13.32
2022-08-05T17:45:20.219Z,13.57
2022-08-05T17:47:53.622Z,13.98
2022-08-05T17:50:28.606Z,14.85
2022-08-05T17:52:59.110Z,15.02
2022-08-05T17:55:34.387Z,16.17
2022-08-05T17:58:12.864Z,16.33
2022-08-05T18:00:44.989Z,15.52
2022-08-05T18:03:59.199Z,15.73
2022-08-05T18:06:12.271Z,16.35
2022-08-05T18:08:46.070Z,16.08
2022-08-05T18:11:23.794Z,15.88
2022-08-05T18:13:53.361Z,16.17
2022-08-05T18:16:20.343Z,16.17
2022-08-05T18:18:48.594Z,17.40
2022-08-05T18:21:21.042Z,18.70
2022-08-05T18:23:53.521Z,19.42
2022-08-05T18:26:28.965Z,19.48
2022-08-05T18:28:57.182Z,19.73
2022-08-05T18:31:24.046Z,19.77
2022-08-05T18:33:51.684Z,21.60
2022-08-05T18:36:19.166Z,21.50
2022-08-05T18:38:46.684Z,22.17
2022-08-05T18:41:56.551Z,23.50
2022-08-05T18:44:06.250Z,22.52
2022-08-05T18:46:34.653Z,22.83
2022-08-05T18:49:21.196Z,24.88
2022-08-05T18:52:08.625Z,26.30
2022-08-05T18:54:36.040Z,25.50
2022-08-05T18:57:09.638Z,24.67
2022-08-05T19:00:02.467Z,24.67
2022-08-05T19:02:29.642Z,23.55
2022-08-05T19:05:02.375Z,25.23
2022-08-05T19:07:50.236Z,26.10
2022-08-05T19:10:28.229Z,28.33
2022-08-05T19:12:56.802Z,27.48
2022-08-05T19:15:56.885Z,26.95
2022-08-05T19:18:20.569Z,27.27
2022-08-05T19:20:49.260Z,26.73
2022-08-05T19:24:04.286Z,26.90
2022-08-05T19:26:03.523Z,27.00
2022-08-05T19:28:32.817Z,25.83
2022-08-05T19:31:01.062Z,27.35
2022-08-05T19:33:35.065Z,26.07
2022-08-05T19:36:03.146Z,25.60
2022-08-05T19:38:35.688Z,26.65
2022-08-05T19:41:07.165Z,26.98
2022-08-05T19:44:05.940Z,27.92
2022-08-05T19:46:29.230Z,28.58
2022-08-05T19:48:56.811Z,28.58
2022-08-05T19:52:05.364Z,28.35
2022-08-05T19:54:21.919Z,29.27
2022-08-05T19:57:02.264Z,27.67
2022-08-05T19:59:54.992Z,29.53
2022-08-05T20:02:18.140Z,31.95
2022-08-05T20:04:46.462Z,30.23
2022-08-05T20:07:15.691Z,29.98
2022-08-05T20:10:13.188Z,30.50
2022-08-05T20:12:46.278Z,30.17
2022-08-05T20:15:23.202Z,31.95
2022-08-05T20:18:10.861Z,30.98
2022-08-05T20:20:55.845Z,32.38
2022-08-05T20:23:39.780Z,31.63
2022-08-05T20:26:16.536Z,31.70
2022-08-05T20:28:51.004Z,32.45
2022-08-05T20:31:21.727Z,32.60
2022-08-05T20:33:55.438Z,34.35
2022-08-05T20:36:24.022Z,37.90
2022-08-05T20:38:53.294Z,39.38
2022-08-05T20:41:24.080Z,40.03
2022-08-05T20:43:58.846Z,39.08
2022-08-05T20:46:28.513Z,38.28
2022-08-05T20:48:55.350Z,38.88
2022-08-05T20:51:22.187Z,40.03
2022-08-05T20:53:55.080Z,39.50
2022-08-05T20:56:28.856Z,39.13
2022-08-05T20:59:00.160Z,40.28
2022-08-05T21:01:38.958Z,38.45
2022-08-05T21:04:10.555Z,40.42
2022-08-05T21:06:45.632Z,38.67
2022-08-05T21:09:14.805Z,38.90
2022-08-05T21:12:10.962Z,41.15
2022-08-05T21:14:35.294Z,41.05
2022-08-05T21:17:05.754Z,42.95
2022-08-05T21:19:47.466Z,40.78
2022-08-05T21:22:18.573Z,41.17
2022-08-05T21:24:51.901Z,43.00
2022-08-05T21:27:20.636Z,41.53
2022-08-05T21:29:52.480Z,40.50
2022-08-05T21:32:21.067Z,39.60
2022-08-05T21:35:08.184Z,41.08
2022-08-05T21:37:41.192Z,40.58
2022-08-05T21:42:44.720Z,38.22
2022-08-05T21:45:24.233Z,37.90
2022-08-05T21:47:56.552Z,36.75
2022-08-05T21:50:27.987Z,37.63
2022-08-05T21:52:59.174Z,39.05
2022-08-05T21:55:42.824Z,38.92
2022-08-05T21:58:20.154Z,39.22
2022-08-05T22:00:51.918Z,38.95
2022-08-05T22:03:20.700Z,39.30
2022-08-05T22:06:06.383Z,40.63
2022-08-05T22:08:35.248Z,40.90
2022-08-05T22:11:02.064Z,40.85
2022-08-05T22:14:19.895Z,42.35
2022-08-05T22:16:41.265Z,40.67
2022-08-05T22:19:57.054Z,42.88
2022-08-05T22:21:56.089Z,40.63
2022-08-05T22:24:52.431Z,43.40
2022-08-05T22:28:08.035Z,40.55
2022-08-05T22:30:34.875Z,42.22
2022-08-05T22:33:15.175Z,42.97
2022-08-05T22:35:48.304Z,44.58
2022-08-05T22:38:16.642Z,43.38
2022-08-05T22:40:50.128Z,44.58
2022-08-05T22:43:36.353Z,44.90
2022-08-05T22:46:13.756Z,43.40
2022-08-05T22:48:50.993Z,43.95
2022-08-05T22:51:23.092Z,43.47
2022-08-05T22:54:05.421Z,43.10
2022-08-05T22:56:32.305Z,42.42
2022-08-05T22:59:02.963Z,43.05
2022-08-05T23:02:04.060Z,42.80
2022-08-05T23:04:33.136Z,42.38
2022-08-05T23:06:59.940Z,43.83
2022-08-05T23:09:52.680Z,41.65
2022-08-05T23:12:24.500Z,43.58
2022-08-05T23:14:51.545Z,44.15
2022-08-05T23:17:34.775Z,45.83
2022-08-05T23:20:16.303Z,46.20
2022-08-05T23:22:47.595Z,43.90
2022-08-05T23:25:50.923Z,44.15
2022-08-05T23:28:06.970Z,44.33
2022-08-05T23:30:40.034Z,45.05
2022-08-05T23:33:16.289Z,46.88
2022-08-05T23:35:50.781Z,44.78
2022-08-05T23:38:18.039Z,47.15
2022-08-05T23:40:50.003Z,48.25
2022-08-05T23:43:24.545Z,48.17
2022-08-05T23:46:04.556Z,45.70
2022-08-05T23:48:31.324Z,47.33
2022-08-05T23:51:01.279Z,45.40
2022-08-05T23:53:46.504Z,45.63
2022-08-05T23:56:13.988Z,45.25
2022-08-05T23:58:47.112Z,45.60
